Airfield :







YOU CAN JOIN US ON...

 
LOGIN :

Register | Disclaimer

   EN    FR    IT 

 









Legend :    VFR   Marginal VFR   IFR   Intensive IFR   Very Intensive IFR
Visi :
Ceiling :
>= 8 km
>= 3000ft
5 to 8 km
1000 to 3000 ft
1500m to 5 km
500 to 1000 ft
800 to 1500m
200 to 500 ft
< 800m
< 200 ft
Symbols :   Thunderstorms  Fog  Heavy snow  Heavy precipitations  Wind > 20 kt






- Airport Elevation : 20 ft
- IATA code : BOS


KBOS - General Edward Lawrence Logan International

CURRENT METAR :
  • 050654Z 22010KT 10SM FEW075 OVC150 21/16 A2987 RMK AO2 SLP114 T02110161

EXPIRED METARs :
  • 050554Z 17008KT 10SM FEW090 BKN180 OVC250 20/16 A2988 RMK AO2 SLP117 T02000156 10239 20194 58003
  • 050454Z 17005KT 10SM FEW120 BKN150 OVC250 21/16 A2988 RMK AO2 SLP116 T02060161 403170150

TAF KBOS
Valid from the 05 at 06:00 until the 06 at 12:00 UTC


050525Z 0506/0612 18006KT P6SM BKN150
FM050800 21007KT P6SM VCSH OVC100
FM051200 20007KT P6SM VCSH SCT025 BKN035
FM051700 22010G20KT P6SM VCSH OVC045
FM060100 21010G19KT 6SM BR VCSH BKN010
FM060500 22009KT 6SM BR VCSH OVC010
KZBW FIR / North America



MET'MAP, your aeronautical weather chart ! - Copyright ORBIFLY December 2007 - Disclaimer

ORBIFLY MET'MAP TEAM :

Programming & Development : Alexandra Zaïnal
Concept & original design : Baudouin d'Aumeries
Assistance for programming : Marc-Olivier Méhu
Technical & hardware support : Manuel Goepfert

Contact : metmap@orbifly.com




SOURCES & CREDITS :

   NOAA